GMP weather

Gimpo International Airport
Seoul, Seoul Teugbyeolsi, South Korea

Public forecast

Using degrees Celsius for public forecast. Weather courtesy of forecast.io.

METAR (pilot weather report)

Retrieved 2018/12/18 16:00 UTC (21 minutes ago):

RKSS 181600Z 20003KT CAVOK M01/M05 Q1019 NOSIG

TAF (pilot weather forecast)

Retrieved 2018/12/18 12:00 UTC (4 hours ago):

TAF RKSS 181100Z 1812/1918 15005KT 6000 SCT030 TNM03/1822Z TX07/1906Z BECMG 1818/1819 4200 BR TEMPO 1820/1822 29005KT 2000 BECMG 1823/1824 28005KT 6000 NSW BECMG 1912/1913 06005KT